<?xml version="1.0" encoding="UTF-8" standalone="no" ?>
<gpx xmlns="http://www.topografix.com/GPX/1/1" xmlns:xsi="http://www.w3.org/2001/XMLSchema-instance" xsi:schemaLocation="http://www.topografix.com/GPX/1/1 http://www.topografix.com/GPX/1/1/gpx.xsd" version="1.1" creator="VisuGPX - https://www.visugpx.com">
  <metadata>
    <name>parcours 13</name>
    <desc><![CDATA[l'entrainement continu]]></desc>
  </metadata>
  <trk>
    <name><![CDATA[ACTIVE LOG131352]]></name>
    <trkseg>
      <trkpt lat="48.40336" lon="-4.72309">
        <ele>76.276</ele>
        <time>2010-08-16T11:13:52Z</time>
      </trkpt>
      <trkpt lat="48.40324" lon="-4.7228">
        <ele>76.69</ele>
        <time>2010-08-16T11:14:15Z</time>
      </trkpt>
      <trkpt lat="48.40325" lon="-4.72302">
        <ele>76.613</ele>
        <time>2010-08-16T11:14:23Z</time>
      </trkpt>
      <trkpt lat="48.40336" lon="-4.72307">
        <ele>76.672</ele>
        <time>2010-08-16T11:14:28Z</time>
      </trkpt>
      <trkpt lat="48.40344" lon="-4.72309">
        <ele>76.23</ele>
        <time>2010-08-16T11:14:30Z</time>
      </trkpt>
      <trkpt lat="48.40355" lon="-4.72329">
        <ele>76.08</ele>
        <time>2010-08-16T11:14:34Z</time>
      </trkpt>
      <trkpt lat="48.40371" lon="-4.72347">
        <ele>76.404</ele>
        <time>2010-08-16T11:14:38Z</time>
      </trkpt>
      <trkpt lat="48.40465" lon="-4.72457">
        <ele>77.293</ele>
        <time>2010-08-16T11:14:58Z</time>
      </trkpt>
      <trkpt lat="48.40581" lon="-4.7257">
        <ele>78.942</ele>
        <time>2010-08-16T11:15:21Z</time>
      </trkpt>
      <trkpt lat="48.40619" lon="-4.72597">
        <ele>75.704</ele>
        <time>2010-08-16T11:15:30Z</time>
      </trkpt>
      <trkpt lat="48.40698" lon="-4.72641">
        <ele>72.481</ele>
        <time>2010-08-16T11:15:38Z</time>
      </trkpt>
      <trkpt lat="48.40723" lon="-4.72648">
        <ele>73.027</ele>
        <time>2010-08-16T11:15:41Z</time>
      </trkpt>
      <trkpt lat="48.40774" lon="-4.72657">
        <ele>75.164</ele>
        <time>2010-08-16T11:15:48Z</time>
      </trkpt>
      <trkpt lat="48.40801" lon="-4.72657">
        <ele>76.932</ele>
        <time>2010-08-16T11:15:53Z</time>
      </trkpt>
      <trkpt lat="48.40858" lon="-4.72667">
        <ele>79.396</ele>
        <time>2010-08-16T11:16:05Z</time>
      </trkpt>
      <trkpt lat="48.40874" lon="-4.72673">
        <ele>79.943</ele>
        <time>2010-08-16T11:16:08Z</time>
      </trkpt>
      <trkpt lat="48.40935" lon="-4.72695">
        <ele>82.529</ele>
        <time>2010-08-16T11:16:21Z</time>
      </trkpt>
      <trkpt lat="48.41055" lon="-4.72753">
        <ele>79.856</ele>
        <time>2010-08-16T11:16:44Z</time>
      </trkpt>
      <trkpt lat="48.41148" lon="-4.72798">
        <ele>76.801</ele>
        <time>2010-08-16T11:16:58Z</time>
      </trkpt>
      <trkpt lat="48.41233" lon="-4.72834">
        <ele>73.605</ele>
        <time>2010-08-16T11:17:10Z</time>
      </trkpt>
      <trkpt lat="48.41397" lon="-4.72888">
        <ele>71.218</ele>
        <time>2010-08-16T11:17:31Z</time>
      </trkpt>
      <trkpt lat="48.41493" lon="-4.72889">
        <ele>74.007</ele>
        <time>2010-08-16T11:17:43Z</time>
      </trkpt>
      <trkpt lat="48.41552" lon="-4.72893">
        <ele>77.145</ele>
        <time>2010-08-16T11:17:53Z</time>
      </trkpt>
      <trkpt lat="48.41579" lon="-4.72904">
        <ele>79.077</ele>
        <time>2010-08-16T11:17:59Z</time>
      </trkpt>
      <trkpt lat="48.41651" lon="-4.72936">
        <ele>82.131</ele>
        <time>2010-08-16T11:18:14Z</time>
      </trkpt>
      <trkpt lat="48.41777" lon="-4.73008">
        <ele>80.348</ele>
        <time>2010-08-16T11:18:39Z</time>
      </trkpt>
      <trkpt lat="48.41824" lon="-4.73046">
        <ele>77.287</ele>
        <time>2010-08-16T11:18:47Z</time>
      </trkpt>
      <trkpt lat="48.41928" lon="-4.73111">
        <ele>73.971</ele>
        <time>2010-08-16T11:19:02Z</time>
      </trkpt>
      <trkpt lat="48.42097" lon="-4.73179">
        <ele>75.011</ele>
        <time>2010-08-16T11:19:26Z</time>
      </trkpt>
      <trkpt lat="48.4214" lon="-4.73188">
        <ele>76.538</ele>
        <time>2010-08-16T11:19:33Z</time>
      </trkpt>
      <trkpt lat="48.42277" lon="-4.73158">
        <ele>77.563</ele>
        <time>2010-08-16T11:19:56Z</time>
      </trkpt>
      <trkpt lat="48.42364" lon="-4.73133">
        <ele>80.573</ele>
        <time>2010-08-16T11:20:12Z</time>
      </trkpt>
      <trkpt lat="48.42493" lon="-4.73122">
        <ele>81.352</ele>
        <time>2010-08-16T11:20:37Z</time>
      </trkpt>
      <trkpt lat="48.42625" lon="-4.73123">
        <ele>81.797</ele>
        <time>2010-08-16T11:21:00Z</time>
      </trkpt>
      <trkpt lat="48.42721" lon="-4.7313">
        <ele>78.404</ele>
        <time>2010-08-16T11:21:15Z</time>
      </trkpt>
      <trkpt lat="48.42763" lon="-4.73148">
        <ele>76.086</ele>
        <time>2010-08-16T11:21:21Z</time>
      </trkpt>
      <trkpt lat="48.42796" lon="-4.73177">
        <ele>73.537</ele>
        <time>2010-08-16T11:21:26Z</time>
      </trkpt>
      <trkpt lat="48.42911" lon="-4.73276">
        <ele>70.115</ele>
        <time>2010-08-16T11:21:42Z</time>
      </trkpt>
      <trkpt lat="48.4304" lon="-4.73371">
        <ele>67.672</ele>
        <time>2010-08-16T11:22:00Z</time>
      </trkpt>
      <trkpt lat="48.43094" lon="-4.7338">
        <ele>66.928</ele>
        <time>2010-08-16T11:22:07Z</time>
      </trkpt>
      <trkpt lat="48.431" lon="-4.73378">
        <ele>67.815</ele>
        <time>2010-08-16T11:22:09Z</time>
      </trkpt>
      <trkpt lat="48.43188" lon="-4.7331">
        <ele>68.542</ele>
        <time>2010-08-16T11:22:22Z</time>
      </trkpt>
      <trkpt lat="48.43244" lon="-4.73263">
        <ele>69.002</ele>
        <time>2010-08-16T11:22:32Z</time>
      </trkpt>
      <trkpt lat="48.43281" lon="-4.73227">
        <ele>70.537</ele>
        <time>2010-08-16T11:22:40Z</time>
      </trkpt>
      <trkpt lat="48.43349" lon="-4.7313">
        <ele>71.801</ele>
        <time>2010-08-16T11:22:57Z</time>
      </trkpt>
      <trkpt lat="48.43359" lon="-4.73115">
        <ele>71.53</ele>
        <time>2010-08-16T11:23:00Z</time>
      </trkpt>
      <trkpt lat="48.43387" lon="-4.73099">
        <ele>71.057</ele>
        <time>2010-08-16T11:23:08Z</time>
      </trkpt>
      <trkpt lat="48.43417" lon="-4.73124">
        <ele>71.074</ele>
        <time>2010-08-16T11:23:15Z</time>
      </trkpt>
      <trkpt lat="48.43427" lon="-4.73214">
        <ele>68.519</ele>
        <time>2010-08-16T11:23:26Z</time>
      </trkpt>
      <trkpt lat="48.43442" lon="-4.73317">
        <ele>64.964</ele>
        <time>2010-08-16T11:23:36Z</time>
      </trkpt>
      <trkpt lat="48.43487" lon="-4.73468">
        <ele>61.943</ele>
        <time>2010-08-16T11:23:51Z</time>
      </trkpt>
      <trkpt lat="48.43507" lon="-4.7353">
        <ele>59.502</ele>
        <time>2010-08-16T11:23:57Z</time>
      </trkpt>
      <trkpt lat="48.43575" lon="-4.73655">
        <ele>59.301</ele>
        <time>2010-08-16T11:24:12Z</time>
      </trkpt>
      <trkpt lat="48.43616" lon="-4.73719">
        <ele>56.711</ele>
        <time>2010-08-16T11:24:20Z</time>
      </trkpt>
      <trkpt lat="48.43713" lon="-4.73858">
        <ele>54.854</ele>
        <time>2010-08-16T11:24:39Z</time>
      </trkpt>
      <trkpt lat="48.43823" lon="-4.74006">
        <ele>56.892</ele>
        <time>2010-08-16T11:24:58Z</time>
      </trkpt>
      <trkpt lat="48.43907" lon="-4.74035">
        <ele>57.365</ele>
        <time>2010-08-16T11:25:12Z</time>
      </trkpt>
      <trkpt lat="48.44006" lon="-4.74053">
        <ele>54.215</ele>
        <time>2010-08-16T11:25:27Z</time>
      </trkpt>
      <trkpt lat="48.44013" lon="-4.74054">
        <ele>54.705</ele>
        <time>2010-08-16T11:25:28Z</time>
      </trkpt>
      <trkpt lat="48.44064" lon="-4.74065">
        <ele>54.29</ele>
        <time>2010-08-16T11:25:38Z</time>
      </trkpt>
      <trkpt lat="48.44185" lon="-4.74097">
        <ele>53.048</ele>
        <time>2010-08-16T11:25:58Z</time>
      </trkpt>
      <trkpt lat="48.44337" lon="-4.74122">
        <ele>53.896</ele>
        <time>2010-08-16T11:26:23Z</time>
      </trkpt>
      <trkpt lat="48.44535" lon="-4.74087">
        <ele>52.88</ele>
        <time>2010-08-16T11:26:53Z</time>
      </trkpt>
      <trkpt lat="48.44603" lon="-4.74076">
        <ele>56.06</ele>
        <time>2010-08-16T11:27:04Z</time>
      </trkpt>
      <trkpt lat="48.44695" lon="-4.74057">
        <ele>59.298</ele>
        <time>2010-08-16T11:27:23Z</time>
      </trkpt>
      <trkpt lat="48.44792" lon="-4.74034">
        <ele>62.579</ele>
        <time>2010-08-16T11:27:44Z</time>
      </trkpt>
      <trkpt lat="48.44917" lon="-4.74004">
        <ele>62.328</ele>
        <time>2010-08-16T11:28:09Z</time>
      </trkpt>
      <trkpt lat="48.45062" lon="-4.73954">
        <ele>63.891</ele>
        <time>2010-08-16T11:28:36Z</time>
      </trkpt>
      <trkpt lat="48.45217" lon="-4.73932">
        <ele>62.732</ele>
        <time>2010-08-16T11:29:04Z</time>
      </trkpt>
      <trkpt lat="48.45323" lon="-4.73902">
        <ele>63.929</ele>
        <time>2010-08-16T11:29:21Z</time>
      </trkpt>
      <trkpt lat="48.45408" lon="-4.73868">
        <ele>66.933</ele>
        <time>2010-08-16T11:29:38Z</time>
      </trkpt>
      <trkpt lat="48.45511" lon="-4.73847">
        <ele>69.712</ele>
        <time>2010-08-16T11:30:00Z</time>
      </trkpt>
      <trkpt lat="48.45571" lon="-4.73833">
        <ele>71.499</ele>
        <time>2010-08-16T11:30:12Z</time>
      </trkpt>
      <trkpt lat="48.4563" lon="-4.73774">
        <ele>71.341</ele>
        <time>2010-08-16T11:30:28Z</time>
      </trkpt>
      <trkpt lat="48.45717" lon="-4.73687">
        <ele>68.706</ele>
        <time>2010-08-16T11:30:48Z</time>
      </trkpt>
      <trkpt lat="48.45792" lon="-4.73618">
        <ele>65.59</ele>
        <time>2010-08-16T11:31:00Z</time>
      </trkpt>
      <trkpt lat="48.4582" lon="-4.73594">
        <ele>64.532</ele>
        <time>2010-08-16T11:31:04Z</time>
      </trkpt>
      <trkpt lat="48.45904" lon="-4.73538">
        <ele>63.335</ele>
        <time>2010-08-16T11:31:15Z</time>
      </trkpt>
      <trkpt lat="48.45991" lon="-4.73431">
        <ele>62.144</ele>
        <time>2010-08-16T11:31:29Z</time>
      </trkpt>
      <trkpt lat="48.46105" lon="-4.73261">
        <ele>59.69</ele>
        <time>2010-08-16T11:31:48Z</time>
      </trkpt>
      <trkpt lat="48.46219" lon="-4.73099">
        <ele>56.133</ele>
        <time>2010-08-16T11:32:06Z</time>
      </trkpt>
      <trkpt lat="48.46226" lon="-4.73091">
        <ele>56.331</ele>
        <time>2010-08-16T11:32:07Z</time>
      </trkpt>
      <trkpt lat="48.46256" lon="-4.73054">
        <ele>53.161</ele>
        <time>2010-08-16T11:32:11Z</time>
      </trkpt>
      <trkpt lat="48.46263" lon="-4.73044">
        <ele>52.913</ele>
        <time>2010-08-16T11:32:12Z</time>
      </trkpt>
      <trkpt lat="48.4635" lon="-4.72922">
        <ele>48.835</ele>
        <time>2010-08-16T11:32:24Z</time>
      </trkpt>
      <trkpt lat="48.46366" lon="-4.72899">
        <ele>47.883</ele>
        <time>2010-08-16T11:32:26Z</time>
      </trkpt>
      <trkpt lat="48.46394" lon="-4.72869">
        <ele>44.76</ele>
        <time>2010-08-16T11:32:29Z</time>
      </trkpt>
      <trkpt lat="48.46403" lon="-4.72859">
        <ele>44.686</ele>
        <time>2010-08-16T11:32:30Z</time>
      </trkpt>
      <trkpt lat="48.46443" lon="-4.7282">
        <ele>41.644</ele>
        <time>2010-08-16T11:32:34Z</time>
      </trkpt>
      <trkpt lat="48.46447" lon="-4.72816">
        <ele>39.519</ele>
        <time>2010-08-16T11:32:36Z</time>
      </trkpt>
      <trkpt lat="48.46447" lon="-4.72816">
        <ele>38.513</ele>
        <time>2010-08-16T11:32:37Z</time>
      </trkpt>
      <trkpt lat="48.46527" lon="-4.72777">
        <ele>36.94</ele>
        <time>2010-08-16T11:32:42Z</time>
      </trkpt>
      <trkpt lat="48.46666" lon="-4.72758">
        <ele>36.77</ele>
        <time>2010-08-16T11:32:56Z</time>
      </trkpt>
      <trkpt lat="48.46676" lon="-4.72754">
        <ele>36.065</ele>
        <time>2010-08-16T11:32:57Z</time>
      </trkpt>
      <trkpt lat="48.46712" lon="-4.72682">
        <ele>37.22</ele>
        <time>2010-08-16T11:33:04Z</time>
      </trkpt>
      <trkpt lat="48.46731" lon="-4.72583">
        <ele>36.358</ele>
        <time>2010-08-16T11:33:12Z</time>
      </trkpt>
      <trkpt lat="48.46769" lon="-4.72485">
        <ele>32.642</ele>
        <time>2010-08-16T11:33:20Z</time>
      </trkpt>
      <trkpt lat="48.46786" lon="-4.72443">
        <ele>29.387</ele>
        <time>2010-08-16T11:33:23Z</time>
      </trkpt>
      <trkpt lat="48.46792" lon="-4.72429">
        <ele>29.364</ele>
        <time>2010-08-16T11:33:24Z</time>
      </trkpt>
      <trkpt lat="48.46814" lon="-4.72368">
        <ele>25.913</ele>
        <time>2010-08-16T11:33:28Z</time>
      </trkpt>
      <trkpt lat="48.46817" lon="-4.72351">
        <ele>26.087</ele>
        <time>2010-08-16T11:33:29Z</time>
      </trkpt>
      <trkpt lat="48.46842" lon="-4.72219">
        <ele>22.393</ele>
        <time>2010-08-16T11:33:37Z</time>
      </trkpt>
      <trkpt lat="48.46858" lon="-4.72136">
        <ele>19.361</ele>
        <time>2010-08-16T11:33:42Z</time>
      </trkpt>
      <trkpt lat="48.46861" lon="-4.7212">
        <ele>19.24</ele>
        <time>2010-08-16T11:33:43Z</time>
      </trkpt>
      <trkpt lat="48.4687" lon="-4.7207">
        <ele>18.175</ele>
        <time>2010-08-16T11:33:46Z</time>
      </trkpt>
      <trkpt lat="48.46867" lon="-4.71984">
        <ele>16.373</ele>
        <time>2010-08-16T11:33:51Z</time>
      </trkpt>
      <trkpt lat="48.46858" lon="-4.71932">
        <ele>14.731</ele>
        <time>2010-08-16T11:33:54Z</time>
      </trkpt>
      <trkpt lat="48.46845" lon="-4.71859">
        <ele>11.249</ele>
        <time>2010-08-16T11:33:58Z</time>
      </trkpt>
      <trkpt lat="48.46836" lon="-4.71803">
        <ele>9.735</ele>
        <time>2010-08-16T11:34:01Z</time>
      </trkpt>
      <trkpt lat="48.46826" lon="-4.71746">
        <ele>7.393</ele>
        <time>2010-08-16T11:34:04Z</time>
      </trkpt>
      <trkpt lat="48.4684" lon="-4.71681">
        <ele>3.793</ele>
        <time>2010-08-16T11:34:08Z</time>
      </trkpt>
      <trkpt lat="48.46855" lon="-4.7167">
        <ele>0.931</ele>
        <time>2010-08-16T11:34:11Z</time>
      </trkpt>
      <trkpt lat="48.46921" lon="-4.71669">
        <ele>4.962</ele>
        <time>2010-08-16T11:34:16Z</time>
      </trkpt>
      <trkpt lat="48.46936" lon="-4.71667">
        <ele>7.42</ele>
        <time>2010-08-16T11:34:18Z</time>
      </trkpt>
      <trkpt lat="48.46956" lon="-4.71661">
        <ele>8.646</ele>
        <time>2010-08-16T11:34:21Z</time>
      </trkpt>
      <trkpt lat="48.47027" lon="-4.71643">
        <ele>11.991</ele>
        <time>2010-08-16T11:34:33Z</time>
      </trkpt>
      <trkpt lat="48.47093" lon="-4.71631">
        <ele>13.714</ele>
        <time>2010-08-16T11:34:46Z</time>
      </trkpt>
      <trkpt lat="48.47109" lon="-4.71617">
        <ele>14.089</ele>
        <time>2010-08-16T11:34:50Z</time>
      </trkpt>
      <trkpt lat="48.4718" lon="-4.71503">
        <ele>14.505</ele>
        <time>2010-08-16T11:35:11Z</time>
      </trkpt>
      <trkpt lat="48.47192" lon="-4.71473">
        <ele>13.916</ele>
        <time>2010-08-16T11:35:15Z</time>
      </trkpt>
      <trkpt lat="48.4721" lon="-4.71375">
        <ele>13.375</ele>
        <time>2010-08-16T11:35:26Z</time>
      </trkpt>
      <trkpt lat="48.47239" lon="-4.71273">
        <ele>13.404</ele>
        <time>2010-08-16T11:35:38Z</time>
      </trkpt>
      <trkpt lat="48.47251" lon="-4.71243">
        <ele>12.383</ele>
        <time>2010-08-16T11:35:45Z</time>
      </trkpt>
      <trkpt lat="48.47264" lon="-4.71251">
        <ele>11.256</ele>
        <time>2010-08-16T11:35:49Z</time>
      </trkpt>
      <trkpt lat="48.47274" lon="-4.71265">
        <ele>10.952</ele>
        <time>2010-08-16T11:35:52Z</time>
      </trkpt>
      <trkpt lat="48.47295" lon="-4.71325">
        <ele>13.67</ele>
        <time>2010-08-16T11:36:02Z</time>
      </trkpt>
      <trkpt lat="48.47299" lon="-4.71341">
        <ele>15.034</ele>
        <time>2010-08-16T11:36:05Z</time>
      </trkpt>
      <trkpt lat="48.47317" lon="-4.71387">
        <ele>17.942</ele>
        <time>2010-08-16T11:36:16Z</time>
      </trkpt>
      <trkpt lat="48.47351" lon="-4.71435">
        <ele>21.084</ele>
        <time>2010-08-16T11:36:30Z</time>
      </trkpt>
      <trkpt lat="48.47404" lon="-4.71467">
        <ele>23.727</ele>
        <time>2010-08-16T11:36:47Z</time>
      </trkpt>
      <trkpt lat="48.47443" lon="-4.71489">
        <ele>26.879</ele>
        <time>2010-08-16T11:37:04Z</time>
      </trkpt>
      <trkpt lat="48.47523" lon="-4.71556">
        <ele>26.683</ele>
        <time>2010-08-16T11:37:24Z</time>
      </trkpt>
      <trkpt lat="48.47578" lon="-4.7161">
        <ele>24.397</ele>
        <time>2010-08-16T11:37:37Z</time>
      </trkpt>
      <trkpt lat="48.47595" lon="-4.71627">
        <ele>23.138</ele>
        <time>2010-08-16T11:37:40Z</time>
      </trkpt>
      <trkpt lat="48.47612" lon="-4.71646">
        <ele>21.899</ele>
        <time>2010-08-16T11:37:43Z</time>
      </trkpt>
      <trkpt lat="48.47708" lon="-4.71773">
        <ele>21.215</ele>
        <time>2010-08-16T11:38:01Z</time>
      </trkpt>
      <trkpt lat="48.47722" lon="-4.7181">
        <ele>23.324</ele>
        <time>2010-08-16T11:38:06Z</time>
      </trkpt>
      <trkpt lat="48.47725" lon="-4.71861">
        <ele>23.238</ele>
        <time>2010-08-16T11:38:12Z</time>
      </trkpt>
      <trkpt lat="48.47711" lon="-4.72026">
        <ele>21.184</ele>
        <time>2010-08-16T11:38:29Z</time>
      </trkpt>
      <trkpt lat="48.47709" lon="-4.72052">
        <ele>20.603</ele>
        <time>2010-08-16T11:38:32Z</time>
      </trkpt>
      <trkpt lat="48.47704" lon="-4.72098">
        <ele>18.942</ele>
        <time>2010-08-16T11:38:36Z</time>
      </trkpt>
      <trkpt lat="48.47704" lon="-4.72193">
        <ele>15.48</ele>
        <time>2010-08-16T11:38:44Z</time>
      </trkpt>
      <trkpt lat="48.47712" lon="-4.723">
        <ele>13.314</ele>
        <time>2010-08-16T11:38:53Z</time>
      </trkpt>
      <trkpt lat="48.47713" lon="-4.72361">
        <ele>9.083</ele>
        <time>2010-08-16T11:38:58Z</time>
      </trkpt>
      <trkpt lat="48.47713" lon="-4.72374">
        <ele>8.55</ele>
        <time>2010-08-16T11:38:59Z</time>
      </trkpt>
      <trkpt lat="48.47713" lon="-4.72382">
        <ele>7.646</ele>
        <time>2010-08-16T11:39:01Z</time>
      </trkpt>
      <trkpt lat="48.47727" lon="-4.72458">
        <ele>5.791</ele>
        <time>2010-08-16T11:39:05Z</time>
      </trkpt>
      <trkpt lat="48.47735" lon="-4.72521">
        <ele>8.07</ele>
        <time>2010-08-16T11:39:10Z</time>
      </trkpt>
      <trkpt lat="48.47727" lon="-4.72556">
        <ele>11.039</ele>
        <time>2010-08-16T11:39:14Z</time>
      </trkpt>
      <trkpt lat="48.4772" lon="-4.7259">
        <ele>13.3</ele>
        <time>2010-08-16T11:39:19Z</time>
      </trkpt>
      <trkpt lat="48.47708" lon="-4.72668">
        <ele>16.363</ele>
        <time>2010-08-16T11:39:32Z</time>
      </trkpt>
      <trkpt lat="48.47701" lon="-4.72747">
        <ele>18.01</ele>
        <time>2010-08-16T11:39:44Z</time>
      </trkpt>
      <trkpt lat="48.47703" lon="-4.72937">
        <ele>16.655</ele>
        <time>2010-08-16T11:40:07Z</time>
      </trkpt>
      <trkpt lat="48.47694" lon="-4.73113">
        <ele>18.272</ele>
        <time>2010-08-16T11:40:27Z</time>
      </trkpt>
      <trkpt lat="48.47668" lon="-4.7326">
        <ele>20.049</ele>
        <time>2010-08-16T11:40:46Z</time>
      </trkpt>
      <trkpt lat="48.47654" lon="-4.73437">
        <ele>19.866</ele>
        <time>2010-08-16T11:41:07Z</time>
      </trkpt>
      <trkpt lat="48.47654" lon="-4.73475">
        <ele>17.479</ele>
        <time>2010-08-16T11:41:11Z</time>
      </trkpt>
      <trkpt lat="48.47656" lon="-4.73536">
        <ele>15.514</ele>
        <time>2010-08-16T11:41:17Z</time>
      </trkpt>
      <trkpt lat="48.47685" lon="-4.73631">
        <ele>12.307</ele>
        <time>2010-08-16T11:41:26Z</time>
      </trkpt>
      <trkpt lat="48.47689" lon="-4.73642">
        <ele>11.85</ele>
        <time>2010-08-16T11:41:27Z</time>
      </trkpt>
      <trkpt lat="48.47696" lon="-4.73663">
        <ele>12.073</ele>
        <time>2010-08-16T11:41:29Z</time>
      </trkpt>
      <trkpt lat="48.47698" lon="-4.73719">
        <ele>14.569</ele>
        <time>2010-08-16T11:41:35Z</time>
      </trkpt>
      <trkpt lat="48.47694" lon="-4.73731">
        <ele>15.202</ele>
        <time>2010-08-16T11:41:37Z</time>
      </trkpt>
      <trkpt lat="48.47687" lon="-4.73753">
        <ele>16.266</ele>
        <time>2010-08-16T11:41:41Z</time>
      </trkpt>
      <trkpt lat="48.47677" lon="-4.73784">
        <ele>16.708</ele>
        <time>2010-08-16T11:41:46Z</time>
      </trkpt>
      <trkpt lat="48.47669" lon="-4.73809">
        <ele>17.519</ele>
        <time>2010-08-16T11:41:50Z</time>
      </trkpt>
      <trkpt lat="48.4765" lon="-4.73837">
        <ele>18.666</ele>
        <time>2010-08-16T11:41:55Z</time>
      </trkpt>
      <trkpt lat="48.47594" lon="-4.73901">
        <ele>15.795</ele>
        <time>2010-08-16T11:42:06Z</time>
      </trkpt>
      <trkpt lat="48.47575" lon="-4.73937">
        <ele>14.857</ele>
        <time>2010-08-16T11:42:10Z</time>
      </trkpt>
      <trkpt lat="48.47572" lon="-4.73957">
        <ele>14.196</ele>
        <time>2010-08-16T11:42:12Z</time>
      </trkpt>
      <trkpt lat="48.47554" lon="-4.74049">
        <ele>10.424</ele>
        <time>2010-08-16T11:42:21Z</time>
      </trkpt>
      <trkpt lat="48.47554" lon="-4.7406">
        <ele>10.428</ele>
        <time>2010-08-16T11:42:22Z</time>
      </trkpt>
      <trkpt lat="48.47553" lon="-4.74071">
        <ele>10.475</ele>
        <time>2010-08-16T11:42:23Z</time>
      </trkpt>
      <trkpt lat="48.4755" lon="-4.74137">
        <ele>9.606</ele>
        <time>2010-08-16T11:42:29Z</time>
      </trkpt>
      <trkpt lat="48.47541" lon="-4.74172">
        <ele>9.493</ele>
        <time>2010-08-16T11:42:33Z</time>
      </trkpt>
      <trkpt lat="48.47505" lon="-4.74245">
        <ele>13.013</ele>
        <time>2010-08-16T11:42:41Z</time>
      </trkpt>
      <trkpt lat="48.47491" lon="-4.74272">
        <ele>13.48</ele>
        <time>2010-08-16T11:42:45Z</time>
      </trkpt>
      <trkpt lat="48.47487" lon="-4.74289">
        <ele>13.712</ele>
        <time>2010-08-16T11:42:47Z</time>
      </trkpt>
      <trkpt lat="48.47481" lon="-4.74373">
        <ele>16.899</ele>
        <time>2010-08-16T11:43:01Z</time>
      </trkpt>
      <trkpt lat="48.47473" lon="-4.74419">
        <ele>15.332</ele>
        <time>2010-08-16T11:43:04Z</time>
      </trkpt>
      <trkpt lat="48.47471" lon="-4.74426">
        <ele>15.482</ele>
        <time>2010-08-16T11:43:05Z</time>
      </trkpt>
      <trkpt lat="48.47464" lon="-4.74455">
        <ele>14.288</ele>
        <time>2010-08-16T11:43:09Z</time>
      </trkpt>
      <trkpt lat="48.47451" lon="-4.74507">
        <ele>12.444</ele>
        <time>2010-08-16T11:43:15Z</time>
      </trkpt>
      <trkpt lat="48.47438" lon="-4.74532">
        <ele>14.239</ele>
        <time>2010-08-16T11:43:21Z</time>
      </trkpt>
      <trkpt lat="48.47421" lon="-4.74545">
        <ele>14.421</ele>
        <time>2010-08-16T11:43:22Z</time>
      </trkpt>
      <trkpt lat="48.47367" lon="-4.7459">
        <ele>12.59</ele>
        <time>2010-08-16T11:43:32Z</time>
      </trkpt>
      <trkpt lat="48.47357" lon="-4.746">
        <ele>11.791</ele>
        <time>2010-08-16T11:43:34Z</time>
      </trkpt>
      <trkpt lat="48.4734" lon="-4.74623">
        <ele>13.3</ele>
        <time>2010-08-16T11:43:38Z</time>
      </trkpt>
      <trkpt lat="48.47333" lon="-4.7464">
        <ele>13.158</ele>
        <time>2010-08-16T11:43:40Z</time>
      </trkpt>
      <trkpt lat="48.47309" lon="-4.74716">
        <ele>11.235</ele>
        <time>2010-08-16T11:43:49Z</time>
      </trkpt>
      <trkpt lat="48.47308" lon="-4.74823">
        <ele>8.051</ele>
        <time>2010-08-16T11:43:59Z</time>
      </trkpt>
      <trkpt lat="48.47314" lon="-4.74869">
        <ele>5.393</ele>
        <time>2010-08-16T11:44:03Z</time>
      </trkpt>
      <trkpt lat="48.47352" lon="-4.74939">
        <ele>3.798</ele>
        <time>2010-08-16T11:44:11Z</time>
      </trkpt>
      <trkpt lat="48.47424" lon="-4.75011">
        <ele>3.529</ele>
        <time>2010-08-16T11:44:23Z</time>
      </trkpt>
      <trkpt lat="48.47432" lon="-4.75027">
        <ele>2.498</ele>
        <time>2010-08-16T11:44:25Z</time>
      </trkpt>
      <trkpt lat="48.47437" lon="-4.75071">
        <ele>0.733</ele>
        <time>2010-08-16T11:44:29Z</time>
      </trkpt>
      <trkpt lat="48.47432" lon="-4.75102">
        <ele>2.515</ele>
        <time>2010-08-16T11:44:32Z</time>
      </trkpt>
      <trkpt lat="48.47421" lon="-4.75116">
        <ele>2.59</ele>
        <time>2010-08-16T11:44:34Z</time>
      </trkpt>
      <trkpt lat="48.47364" lon="-4.75199">
        <ele>1.599</ele>
        <time>2010-08-16T11:44:46Z</time>
      </trkpt>
      <trkpt lat="48.47339" lon="-4.75315">
        <ele>3.054</ele>
        <time>2010-08-16T11:44:59Z</time>
      </trkpt>
      <trkpt lat="48.47326" lon="-4.75397">
        <ele>5.366</ele>
        <time>2010-08-16T11:45:10Z</time>
      </trkpt>
      <trkpt lat="48.47323" lon="-4.75422">
        <ele>6.52</ele>
        <time>2010-08-16T11:45:14Z</time>
      </trkpt>
      <trkpt lat="48.47328" lon="-4.75466">
        <ele>8.549</ele>
        <time>2010-08-16T11:45:21Z</time>
      </trkpt>
      <trkpt lat="48.47353" lon="-4.75522">
        <ele>11.829</ele>
        <time>2010-08-16T11:45:34Z</time>
      </trkpt>
      <trkpt lat="48.47398" lon="-4.75583">
        <ele>14.07</ele>
        <time>2010-08-16T11:45:51Z</time>
      </trkpt>
      <trkpt lat="48.47472" lon="-4.75684">
        <ele>14.939</ele>
        <time>2010-08-16T11:46:15Z</time>
      </trkpt>
      <trkpt lat="48.47546" lon="-4.75786">
        <ele>16.084</ele>
        <time>2010-08-16T11:46:38Z</time>
      </trkpt>
      <trkpt lat="48.47624" lon="-4.75892">
        <ele>17.08</ele>
        <time>2010-08-16T11:47:01Z</time>
      </trkpt>
      <trkpt lat="48.47705" lon="-4.76009">
        <ele>18.888</ele>
        <time>2010-08-16T11:47:23Z</time>
      </trkpt>
      <trkpt lat="48.47758" lon="-4.76112">
        <ele>19.614</ele>
        <time>2010-08-16T11:47:40Z</time>
      </trkpt>
      <trkpt lat="48.4777" lon="-4.76156">
        <ele>17.947</ele>
        <time>2010-08-16T11:47:46Z</time>
      </trkpt>
      <trkpt lat="48.47797" lon="-4.76331">
        <ele>14.101</ele>
        <time>2010-08-16T11:48:05Z</time>
      </trkpt>
      <trkpt lat="48.47802" lon="-4.76351">
        <ele>13.446</ele>
        <time>2010-08-16T11:48:07Z</time>
      </trkpt>
      <trkpt lat="48.47835" lon="-4.76443">
        <ele>10.314</ele>
        <time>2010-08-16T11:48:16Z</time>
      </trkpt>
      <trkpt lat="48.47924" lon="-4.76599">
        <ele>10.189</ele>
        <time>2010-08-16T11:48:35Z</time>
      </trkpt>
      <trkpt lat="48.47973" lon="-4.76634">
        <ele>6.393</ele>
        <time>2010-08-16T11:48:42Z</time>
      </trkpt>
      <trkpt lat="48.47981" lon="-4.76638">
        <ele>6.115</ele>
        <time>2010-08-16T11:48:43Z</time>
      </trkpt>
      <trkpt lat="48.48009" lon="-4.76652">
        <ele>3.002</ele>
        <time>2010-08-16T11:48:48Z</time>
      </trkpt>
      <trkpt lat="48.48075" lon="-4.76658">
        <ele>4.712</ele>
        <time>2010-08-16T11:48:54Z</time>
      </trkpt>
      <trkpt lat="48.48101" lon="-4.76677">
        <ele>6.105</ele>
        <time>2010-08-16T11:48:58Z</time>
      </trkpt>
      <trkpt lat="48.48166" lon="-4.76756">
        <ele>6.659</ele>
        <time>2010-08-16T11:49:11Z</time>
      </trkpt>
      <trkpt lat="48.48248" lon="-4.76824">
        <ele>5.771</ele>
        <time>2010-08-16T11:49:25Z</time>
      </trkpt>
      <trkpt lat="48.48284" lon="-4.7688">
        <ele>5.642</ele>
        <time>2010-08-16T11:49:33Z</time>
      </trkpt>
      <trkpt lat="48.48299" lon="-4.7698">
        <ele>6.564</ele>
        <time>2010-08-16T11:49:43Z</time>
      </trkpt>
      <trkpt lat="48.48312" lon="-4.77024">
        <ele>6.796</ele>
        <time>2010-08-16T11:49:48Z</time>
      </trkpt>
      <trkpt lat="48.4832" lon="-4.77037">
        <ele>7.015</ele>
        <time>2010-08-16T11:49:50Z</time>
      </trkpt>
      <trkpt lat="48.48331" lon="-4.77056">
        <ele>7.394</ele>
        <time>2010-08-16T11:49:53Z</time>
      </trkpt>
      <trkpt lat="48.48414" lon="-4.77095">
        <ele>4.06</ele>
        <time>2010-08-16T11:50:08Z</time>
      </trkpt>
      <trkpt lat="48.48421" lon="-4.77096">
        <ele>3.897</ele>
        <time>2010-08-16T11:50:09Z</time>
      </trkpt>
      <trkpt lat="48.48435" lon="-4.771">
        <ele>2.517</ele>
        <time>2010-08-16T11:50:11Z</time>
      </trkpt>
      <trkpt lat="48.48558" lon="-4.77117">
        <ele>3.644</ele>
        <time>2010-08-16T11:50:30Z</time>
      </trkpt>
      <trkpt lat="48.48675" lon="-4.77125">
        <ele>5.05</ele>
        <time>2010-08-16T11:50:50Z</time>
      </trkpt>
      <trkpt lat="48.48757" lon="-4.77082">
        <ele>6.964</ele>
        <time>2010-08-16T11:51:06Z</time>
      </trkpt>
      <trkpt lat="48.48762" lon="-4.77079">
        <ele>7.427</ele>
        <time>2010-08-16T11:51:07Z</time>
      </trkpt>
      <trkpt lat="48.48794" lon="-4.7706">
        <ele>8.474</ele>
        <time>2010-08-16T11:51:15Z</time>
      </trkpt>
      <trkpt lat="48.48833" lon="-4.77">
        <ele>12.161</ele>
        <time>2010-08-16T11:51:30Z</time>
      </trkpt>
      <trkpt lat="48.48854" lon="-4.76959">
        <ele>14.388</ele>
        <time>2010-08-16T11:51:39Z</time>
      </trkpt>
      <trkpt lat="48.48889" lon="-4.76922">
        <ele>16.019</ele>
        <time>2010-08-16T11:51:49Z</time>
      </trkpt>
      <trkpt lat="48.48959" lon="-4.76822">
        <ele>15.425</ele>
        <time>2010-08-16T11:52:09Z</time>
      </trkpt>
      <trkpt lat="48.4902" lon="-4.76731">
        <ele>18.481</ele>
        <time>2010-08-16T11:52:26Z</time>
      </trkpt>
      <trkpt lat="48.49102" lon="-4.76655">
        <ele>19.542</ele>
        <time>2010-08-16T11:52:46Z</time>
      </trkpt>
      <trkpt lat="48.49172" lon="-4.76605">
        <ele>22.7</ele>
        <time>2010-08-16T11:53:04Z</time>
      </trkpt>
      <trkpt lat="48.49229" lon="-4.76536">
        <ele>23.728</ele>
        <time>2010-08-16T11:53:21Z</time>
      </trkpt>
      <trkpt lat="48.49307" lon="-4.76454">
        <ele>23.229</ele>
        <time>2010-08-16T11:53:38Z</time>
      </trkpt>
      <trkpt lat="48.49384" lon="-4.76456">
        <ele>24.437</ele>
        <time>2010-08-16T11:53:52Z</time>
      </trkpt>
      <trkpt lat="48.49528" lon="-4.76512">
        <ele>24.123</ele>
        <time>2010-08-16T11:54:18Z</time>
      </trkpt>
      <trkpt lat="48.49637" lon="-4.76538">
        <ele>24.309</ele>
        <time>2010-08-16T11:54:35Z</time>
      </trkpt>
      <trkpt lat="48.49699" lon="-4.76507">
        <ele>27.365</ele>
        <time>2010-08-16T11:54:47Z</time>
      </trkpt>
      <trkpt lat="48.49785" lon="-4.76453">
        <ele>29.577</ele>
        <time>2010-08-16T11:55:05Z</time>
      </trkpt>
      <trkpt lat="48.49872" lon="-4.7643">
        <ele>32.762</ele>
        <time>2010-08-16T11:55:23Z</time>
      </trkpt>
      <trkpt lat="48.49954" lon="-4.76416">
        <ele>35.449</ele>
        <time>2010-08-16T11:55:45Z</time>
      </trkpt>
      <trkpt lat="48.50007" lon="-4.7642">
        <ele>35.004</ele>
        <time>2010-08-16T11:56:00Z</time>
      </trkpt>
      <trkpt lat="48.50069" lon="-4.76433">
        <ele>31.91</ele>
        <time>2010-08-16T11:56:14Z</time>
      </trkpt>
      <trkpt lat="48.50247" lon="-4.76471">
        <ele>31.561</ele>
        <time>2010-08-16T11:56:39Z</time>
      </trkpt>
      <trkpt lat="48.50253" lon="-4.76475">
        <ele>31.654</ele>
        <time>2010-08-16T11:56:40Z</time>
      </trkpt>
      <trkpt lat="48.5037" lon="-4.76562">
        <ele>30.399</ele>
        <time>2010-08-16T11:57:00Z</time>
      </trkpt>
      <trkpt lat="48.50487" lon="-4.7663">
        <ele>29.301</ele>
        <time>2010-08-16T11:57:19Z</time>
      </trkpt>
      <trkpt lat="48.50551" lon="-4.76623">
        <ele>29.634</ele>
        <time>2010-08-16T11:57:29Z</time>
      </trkpt>
      <trkpt lat="48.50569" lon="-4.76619">
        <ele>27.941</ele>
        <time>2010-08-16T11:57:32Z</time>
      </trkpt>
      <trkpt lat="48.50674" lon="-4.76593">
        <ele>24.877</ele>
        <time>2010-08-16T11:57:48Z</time>
      </trkpt>
      <trkpt lat="48.50696" lon="-4.76587">
        <ele>23.449</ele>
        <time>2010-08-16T11:57:51Z</time>
      </trkpt>
      <trkpt lat="48.50809" lon="-4.76555">
        <ele>20.313</ele>
        <time>2010-08-16T11:58:07Z</time>
      </trkpt>
      <trkpt lat="48.50833" lon="-4.76547">
        <ele>17.84</ele>
        <time>2010-08-16T11:58:10Z</time>
      </trkpt>
      <trkpt lat="48.50842" lon="-4.76544">
        <ele>18.114</ele>
        <time>2010-08-16T11:58:11Z</time>
      </trkpt>
      <trkpt lat="48.50878" lon="-4.76508">
        <ele>14.59</ele>
        <time>2010-08-16T11:58:16Z</time>
      </trkpt>
      <trkpt lat="48.50906" lon="-4.76519">
        <ele>14.988</ele>
        <time>2010-08-16T11:58:20Z</time>
      </trkpt>
      <trkpt lat="48.50944" lon="-4.76511">
        <ele>17.74</ele>
        <time>2010-08-16T11:58:25Z</time>
      </trkpt>
      <trkpt lat="48.50953" lon="-4.76506">
        <ele>19.366</ele>
        <time>2010-08-16T11:58:28Z</time>
      </trkpt>
      <trkpt lat="48.50985" lon="-4.76498">
        <ele>18.523</ele>
        <time>2010-08-16T11:58:32Z</time>
      </trkpt>
      <trkpt lat="48.50998" lon="-4.76496">
        <ele>17.489</ele>
        <time>2010-08-16T11:58:34Z</time>
      </trkpt>
      <trkpt lat="48.51042" lon="-4.76487">
        <ele>14.259</ele>
        <time>2010-08-16T11:58:40Z</time>
      </trkpt>
      <trkpt lat="48.5105" lon="-4.76485">
        <ele>14.108</ele>
        <time>2010-08-16T11:58:41Z</time>
      </trkpt>
      <trkpt lat="48.51073" lon="-4.76481">
        <ele>11.808</ele>
        <time>2010-08-16T11:58:45Z</time>
      </trkpt>
      <trkpt lat="48.51125" lon="-4.76472">
        <ele>8.488</ele>
        <time>2010-08-16T11:58:50Z</time>
      </trkpt>
      <trkpt lat="48.51144" lon="-4.76468">
        <ele>7.68</ele>
        <time>2010-08-16T11:58:52Z</time>
      </trkpt>
      <trkpt lat="48.51214" lon="-4.76462">
        <ele>7.688</ele>
        <time>2010-08-16T11:59:00Z</time>
      </trkpt>
      <trkpt lat="48.51236" lon="-4.76468">
        <ele>7.09</ele>
        <time>2010-08-16T11:59:03Z</time>
      </trkpt>
      <trkpt lat="48.51333" lon="-4.76417">
        <ele>6.431</ele>
        <time>2010-08-16T11:59:16Z</time>
      </trkpt>
      <trkpt lat="48.51438" lon="-4.76386">
        <ele>8.558</ele>
        <time>2010-08-16T11:59:32Z</time>
      </trkpt>
      <trkpt lat="48.51525" lon="-4.76355">
        <ele>9.52</ele>
        <time>2010-08-16T11:59:45Z</time>
      </trkpt>
      <trkpt lat="48.51593" lon="-4.76319">
        <ele>5.851</ele>
        <time>2010-08-16T11:59:55Z</time>
      </trkpt>
      <trkpt lat="48.516" lon="-4.76315">
        <ele>5.769</ele>
        <time>2010-08-16T11:59:56Z</time>
      </trkpt>
      <trkpt lat="48.51714" lon="-4.76237">
        <ele>4.816</ele>
        <time>2010-08-16T12:00:12Z</time>
      </trkpt>
      <trkpt lat="48.51741" lon="-4.76215">
        <ele>5.067</ele>
        <time>2010-08-16T12:00:16Z</time>
      </trkpt>
      <trkpt lat="48.51806" lon="-4.7618">
        <ele>7.775</ele>
        <time>2010-08-16T12:00:26Z</time>
      </trkpt>
      <trkpt lat="48.51823" lon="-4.76166">
        <ele>7.471</ele>
        <time>2010-08-16T12:00:29Z</time>
      </trkpt>
      <trkpt lat="48.51867" lon="-4.76116">
        <ele>7.572</ele>
        <time>2010-08-16T12:00:39Z</time>
      </trkpt>
      <trkpt lat="48.51897" lon="-4.76033">
        <ele>8.424</ele>
        <time>2010-08-16T12:00:47Z</time>
      </trkpt>
      <trkpt lat="48.5191" lon="-4.76004">
        <ele>8.167</ele>
        <time>2010-08-16T12:00:51Z</time>
      </trkpt>
      <trkpt lat="48.51993" lon="-4.75902">
        <ele>8.85</ele>
        <time>2010-08-16T12:01:07Z</time>
      </trkpt>
      <trkpt lat="48.52014" lon="-4.75876">
        <ele>6.785</ele>
        <time>2010-08-16T12:01:11Z</time>
      </trkpt>
      <trkpt lat="48.52027" lon="-4.7586">
        <ele>5.793</ele>
        <time>2010-08-16T12:01:13Z</time>
      </trkpt>
      <trkpt lat="48.52058" lon="-4.75821">
        <ele>2.709</ele>
        <time>2010-08-16T12:01:18Z</time>
      </trkpt>
      <trkpt lat="48.52078" lon="-4.75794">
        <ele>2.591</ele>
        <time>2010-08-16T12:01:22Z</time>
      </trkpt>
      <trkpt lat="48.52142" lon="-4.75783">
        <ele>1.519</ele>
        <time>2010-08-16T12:01:30Z</time>
      </trkpt>
      <trkpt lat="48.52267" lon="-4.75839">
        <ele>3.81</ele>
        <time>2010-08-16T12:01:49Z</time>
      </trkpt>
      <trkpt lat="48.52354" lon="-4.7586">
        <ele>5.168</ele>
        <time>2010-08-16T12:02:03Z</time>
      </trkpt>
      <trkpt lat="48.52383" lon="-4.75861">
        <ele>5.844</ele>
        <time>2010-08-16T12:02:08Z</time>
      </trkpt>
      <trkpt lat="48.52405" lon="-4.75863">
        <ele>6.769</ele>
        <time>2010-08-16T12:02:12Z</time>
      </trkpt>
      <trkpt lat="48.52439" lon="-4.75834">
        <ele>7.198</ele>
        <time>2010-08-16T12:02:19Z</time>
      </trkpt>
      <trkpt lat="48.52461" lon="-4.75805">
        <ele>7.899</ele>
        <time>2010-08-16T12:02:24Z</time>
      </trkpt>
      <trkpt lat="48.52558" lon="-4.75678">
        <ele>8.352</ele>
        <time>2010-08-16T12:02:44Z</time>
      </trkpt>
      <trkpt lat="48.52621" lon="-4.75528">
        <ele>8.59</ele>
        <time>2010-08-16T12:03:01Z</time>
      </trkpt>
      <trkpt lat="48.52653" lon="-4.75408">
        <ele>8.843</ele>
        <time>2010-08-16T12:03:13Z</time>
      </trkpt>
      <trkpt lat="48.52665" lon="-4.75236">
        <ele>11.05</ele>
        <time>2010-08-16T12:03:30Z</time>
      </trkpt>
      <trkpt lat="48.5269" lon="-4.7509">
        <ele>12.494</ele>
        <time>2010-08-16T12:03:47Z</time>
      </trkpt>
      <trkpt lat="48.5275" lon="-4.74902">
        <ele>12.247</ele>
        <time>2010-08-16T12:04:11Z</time>
      </trkpt>
      <trkpt lat="48.52805" lon="-4.74766">
        <ele>10.439</ele>
        <time>2010-08-16T12:04:27Z</time>
      </trkpt>
      <trkpt lat="48.52826" lon="-4.74721">
        <ele>8.581</ele>
        <time>2010-08-16T12:04:32Z</time>
      </trkpt>
      <trkpt lat="48.52873" lon="-4.74594">
        <ele>7.801</ele>
        <time>2010-08-16T12:04:45Z</time>
      </trkpt>
      <trkpt lat="48.52906" lon="-4.74575">
        <ele>6.148</ele>
        <time>2010-08-16T12:04:50Z</time>
      </trkpt>
      <trkpt lat="48.52965" lon="-4.74649">
        <ele>8.589</ele>
        <time>2010-08-16T12:05:01Z</time>
      </trkpt>
      <trkpt lat="48.52969" lon="-4.74654">
        <ele>8.889</ele>
        <time>2010-08-16T12:05:02Z</time>
      </trkpt>
      <trkpt lat="48.52996" lon="-4.74682">
        <ele>11.649</ele>
        <time>2010-08-16T12:05:10Z</time>
      </trkpt>
      <trkpt lat="48.53057" lon="-4.74776">
        <ele>12.607</ele>
        <time>2010-08-16T12:05:25Z</time>
      </trkpt>
      <trkpt lat="48.53111" lon="-4.7488">
        <ele>10.514</ele>
        <time>2010-08-16T12:05:40Z</time>
      </trkpt>
      <trkpt lat="48.5318" lon="-4.74971">
        <ele>9.775</ele>
        <time>2010-08-16T12:05:56Z</time>
      </trkpt>
      <trkpt lat="48.53185" lon="-4.74977">
        <ele>9.921</ele>
        <time>2010-08-16T12:05:57Z</time>
      </trkpt>
      <trkpt lat="48.53209" lon="-4.75006">
        <ele>7.602</ele>
        <time>2010-08-16T12:06:02Z</time>
      </trkpt>
      <trkpt lat="48.53255" lon="-4.75025">
        <ele>8.155</ele>
        <time>2010-08-16T12:06:09Z</time>
      </trkpt>
      <trkpt lat="48.53268" lon="-4.75023">
        <ele>8.916</ele>
        <time>2010-08-16T12:06:11Z</time>
      </trkpt>
      <trkpt lat="48.53348" lon="-4.74994">
        <ele>12.099</ele>
        <time>2010-08-16T12:06:26Z</time>
      </trkpt>
      <trkpt lat="48.53442" lon="-4.7494">
        <ele>9.915</ele>
        <time>2010-08-16T12:06:42Z</time>
      </trkpt>
      <trkpt lat="48.53543" lon="-4.74882">
        <ele>12.935</ele>
        <time>2010-08-16T12:06:59Z</time>
      </trkpt>
      <trkpt lat="48.53582" lon="-4.7486">
        <ele>15.802</ele>
        <time>2010-08-16T12:07:07Z</time>
      </trkpt>
      <trkpt lat="48.53666" lon="-4.74827">
        <ele>16.559</ele>
        <time>2010-08-16T12:07:24Z</time>
      </trkpt>
      <trkpt lat="48.5378" lon="-4.7483">
        <ele>18.253</ele>
        <time>2010-08-16T12:07:44Z</time>
      </trkpt>
      <trkpt lat="48.5379" lon="-4.74831">
        <ele>19.005</ele>
        <time>2010-08-16T12:07:46Z</time>
      </trkpt>
      <trkpt lat="48.539" lon="-4.7484">
        <ele>22.384</ele>
        <time>2010-08-16T12:08:08Z</time>
      </trkpt>
      <trkpt lat="48.53985" lon="-4.74859">
        <ele>25.407</ele>
        <time>2010-08-16T12:08:26Z</time>
      </trkpt>
      <trkpt lat="48.54106" lon="-4.74871">
        <ele>25.607</ele>
        <time>2010-08-16T12:08:48Z</time>
      </trkpt>
      <trkpt lat="48.54229" lon="-4.74877">
        <ele>22.174</ele>
        <time>2010-08-16T12:09:07Z</time>
      </trkpt>
      <trkpt lat="48.54237" lon="-4.74876">
        <ele>20.717</ele>
        <time>2010-08-16T12:09:08Z</time>
      </trkpt>
      <trkpt lat="48.54254" lon="-4.74868">
        <ele>19.902</ele>
        <time>2010-08-16T12:09:10Z</time>
      </trkpt>
      <trkpt lat="48.54272" lon="-4.74857">
        <ele>15.929</ele>
        <time>2010-08-16T12:09:12Z</time>
      </trkpt>
      <trkpt lat="48.54312" lon="-4.74826">
        <ele>10.296</ele>
        <time>2010-08-16T12:09:16Z</time>
      </trkpt>
      <trkpt lat="48.54341" lon="-4.74789">
        <ele>7.911</ele>
        <time>2010-08-16T12:09:19Z</time>
      </trkpt>
      <trkpt lat="48.54368" lon="-4.74747">
        <ele>5.695</ele>
        <time>2010-08-16T12:09:22Z</time>
      </trkpt>
      <trkpt lat="48.54472" lon="-4.74595">
        <ele>6.93</ele>
        <time>2010-08-16T12:09:35Z</time>
      </trkpt>
      <trkpt lat="48.54492" lon="-4.74572">
        <ele>8.885</ele>
        <time>2010-08-16T12:09:38Z</time>
      </trkpt>
      <trkpt lat="48.54515" lon="-4.74546">
        <ele>11.615</ele>
        <time>2010-08-16T12:09:42Z</time>
      </trkpt>
      <trkpt lat="48.54544" lon="-4.74499">
        <ele>14.716</ele>
        <time>2010-08-16T12:09:49Z</time>
      </trkpt>
      <trkpt lat="48.54591" lon="-4.74381">
        <ele>17.522</ele>
        <time>2010-08-16T12:10:04Z</time>
      </trkpt>
      <trkpt lat="48.54628" lon="-4.7424">
        <ele>20.387</ele>
        <time>2010-08-16T12:10:21Z</time>
      </trkpt>
    </trkseg>
  </trk>
</gpx>